createdAt,value
2017-09-24T00:02:06.431Z,10.80
2017-09-24T00:04:33.923Z,10.80
2017-09-24T00:07:01.417Z,10.90
2017-09-24T00:09:28.932Z,10.90
2017-09-24T00:11:57.194Z,10.90
2017-09-24T00:14:24.682Z,10.90
2017-09-24T00:16:52.184Z,10.90
2017-09-24T00:19:19.686Z,10.90
2017-09-24T00:21:47.945Z,10.70
2017-09-24T00:24:15.452Z,10.70
2017-09-24T00:26:42.931Z,10.80
2017-09-24T00:29:11.045Z,10.60
2017-09-24T00:31:39.294Z,10.60
2017-09-24T00:34:06.779Z,10.60
2017-09-24T00:36:34.272Z,10.70
2017-09-24T00:39:01.755Z,10.70
2017-09-24T00:41:29.250Z,10.60
2017-09-24T00:43:57.512Z,10.70
2017-09-24T00:46:25.003Z,10.60
2017-09-24T00:48:52.544Z,10.50
2017-09-24T00:51:31.426Z,10.60
2017-09-24T00:53:58.910Z,10.60
2017-09-24T00:56:26.520Z,10.50
2017-09-24T00:58:57.591Z,10.50
2017-09-24T01:01:25.195Z,10.50
2017-09-24T01:03:53.447Z,10.40
2017-09-24T01:06:20.945Z,10.40
2017-09-24T01:08:48.445Z,10.50
2017-09-24T01:11:15.943Z,10.50
2017-09-24T01:13:44.192Z,10.40
2017-09-24T01:16:11.703Z,10.40
2017-09-24T01:18:39.191Z,10.50
2017-09-24T01:21:06.699Z,10.50
2017-09-24T01:23:34.959Z,10.50
2017-09-24T01:26:02.447Z,10.40
2017-09-24T01:28:29.941Z,10.40
2017-09-24T01:30:57.422Z,10.40
2017-09-24T01:33:24.927Z,10.30
2017-09-24T01:35:52.412Z,10.30
2017-09-24T01:38:19.908Z,10.30
2017-09-24T01:40:48.171Z,10.30
2017-09-24T01:43:15.682Z,10.30
2017-09-24T01:45:43.172Z,10.30
2017-09-24T01:48:10.691Z,10.30
2017-09-24T01:50:38.172Z,10.30
2017-09-24T01:53:05.784Z,10.20
2017-09-24T01:55:34.057Z,10.20
2017-09-24T01:58:02.318Z,10.20
2017-09-24T02:00:29.811Z,10.20
2017-09-24T02:02:57.316Z,10.10
2017-09-24T02:05:24.819Z,10.10
2017-09-24T02:07:53.112Z,10.10
2017-09-24T02:10:20.603Z,10.10
2017-09-24T02:12:48.106Z,10.20
2017-09-24T02:15:16.364Z,10.10
2017-09-24T02:17:43.894Z,10.10
2017-09-24T02:20:11.378Z,10.10
2017-09-24T02:22:44.949Z,9.90
2017-09-24T02:25:12.434Z,9.80
2017-09-24T02:27:39.921Z,9.90
2017-09-24T02:30:08.191Z,10.10
2017-09-24T02:32:36.460Z,10.10
2017-09-24T02:35:04.725Z,10.10
2017-09-24T02:37:32.220Z,10.10
2017-09-24T02:39:59.733Z,10.10
2017-09-24T02:42:27.224Z,10.20
2017-09-24T02:44:55.482Z,10.20
2017-09-24T02:47:22.994Z,10.20
2017-09-24T02:49:50.521Z,10.20
2017-09-24T02:52:18.767Z,10.20
2017-09-24T02:54:46.269Z,10.20
2017-09-24T02:57:13.794Z,10.20
2017-09-24T02:59:41.283Z,10.10
2017-09-24T03:02:08.799Z,10.20
2017-09-24T03:04:37.092Z,10.20
2017-09-24T03:07:05.379Z,10.20
2017-09-24T03:09:33.650Z,10.20
2017-09-24T03:12:01.915Z,10.10
2017-09-24T03:14:29.405Z,10.10
2017-09-24T03:16:56.900Z,10.10
2017-09-24T03:19:24.414Z,10.10
2017-09-24T03:21:51.906Z,10.10
2017-09-24T03:24:20.941Z,10.10
2017-09-24T03:26:48.447Z,10.10
2017-09-24T03:29:15.961Z,10.00
2017-09-24T03:31:43.467Z,10.00
2017-09-24T03:34:10.955Z,10.00
2017-09-24T03:36:38.451Z,9.80
2017-09-24T03:39:06.727Z,10.00
2017-09-24T03:41:34.986Z,10.00
2017-09-24T03:44:03.975Z,9.90
2017-09-24T03:46:31.470Z,9.90
2017-09-24T03:48:59.006Z,9.90
2017-09-24T03:51:27.277Z,9.90
2017-09-24T03:53:54.750Z,9.90
2017-09-24T03:56:23.027Z,9.90
2017-09-24T03:58:51.275Z,9.90
2017-09-24T04:01:18.770Z,9.90
2017-09-24T04:03:46.254Z,9.80
2017-09-24T04:06:13.757Z,9.80
2017-09-24T04:08:41.292Z,9.80
2017-09-24T04:11:08.784Z,9.70
2017-09-24T04:13:37.036Z,9.70
2017-09-24T04:16:04.534Z,9.70
2017-09-24T04:18:32.811Z,9.70
2017-09-24T04:21:00.350Z,9.70
2017-09-24T04:23:28.620Z,9.60
2017-09-24T04:25:56.874Z,9.60
2017-09-24T04:28:24.369Z,9.60
2017-09-24T04:30:52.629Z,9.70
2017-09-24T04:33:20.134Z,9.70
2017-09-24T04:35:47.618Z,9.60
2017-09-24T04:38:15.140Z,9.60
2017-09-24T04:40:42.626Z,9.50
2017-09-24T04:43:10.140Z,9.50
2017-09-24T04:45:38.390Z,9.50
2017-09-24T04:48:05.895Z,9.50
2017-09-24T04:50:33.382Z,9.50
2017-09-24T04:53:00.880Z,9.50
2017-09-24T04:55:29.154Z,9.50
2017-09-24T04:57:57.429Z,9.50
2017-09-24T05:00:25.679Z,9.40
2017-09-24T05:02:53.189Z,9.40
2017-09-24T05:05:21.157Z,9.30
2017-09-24T05:07:48.670Z,9.30
2017-09-24T05:10:16.152Z,9.40
2017-09-24T05:12:44.411Z,9.40
2017-09-24T05:15:11.895Z,9.40
2017-09-24T05:17:40.154Z,9.40
2017-09-24T05:20:07.630Z,9.40
2017-09-24T05:22:35.890Z,9.40
2017-09-24T05:25:04.174Z,9.30
2017-09-24T05:27:32.461Z,9.30
2017-09-24T05:29:59.956Z,9.30
2017-09-24T05:32:27.459Z,9.30
2017-09-24T05:34:55.723Z,9.20
2017-09-24T05:37:24.728Z,9.30
2017-09-24T05:39:52.983Z,9.40
2017-09-24T05:42:20.478Z,9.40
2017-09-24T05:44:48.754Z,9.40
2017-09-24T05:47:17.008Z,9.40
2017-09-24T05:49:44.503Z,9.30
2017-09-24T05:52:11.989Z,9.40
2017-09-24T05:54:39.509Z,9.40
2017-09-24T05:57:07.749Z,9.40
2017-09-24T05:59:35.244Z,9.40
2017-09-24T06:02:02.792Z,9.40
2017-09-24T06:04:31.045Z,9.30
2017-09-24T06:06:58.532Z,9.30
2017-09-24T06:09:26.796Z,9.40
2017-09-24T06:11:55.046Z,9.50
2017-09-24T06:14:22.544Z,9.50
2017-09-24T06:16:50.833Z,9.60
2017-09-24T06:19:18.345Z,9.60
2017-09-24T06:21:45.830Z,9.60
2017-09-24T06:24:14.075Z,9.80
2017-09-24T06:26:41.629Z,9.70
2017-09-24T06:29:09.109Z,9.80
2017-09-24T06:31:36.613Z,9.80
2017-09-24T06:34:04.107Z,9.90
2017-09-24T06:36:31.606Z,10.00
2017-09-24T06:38:59.890Z,10.10
2017-09-24T06:41:27.396Z,10.10
2017-09-24T06:43:54.902Z,10.20
2017-09-24T06:46:22.472Z,10.30
2017-09-24T06:48:49.960Z,10.40
2017-09-24T06:51:17.471Z,10.50
2017-09-24T06:53:45.743Z,10.60
2017-09-24T06:56:14.032Z,10.60
2017-09-24T06:58:41.519Z,10.60
2017-09-24T07:01:09.023Z,10.70
2017-09-24T07:03:36.512Z,10.80
2017-09-24T07:06:04.022Z,10.80
2017-09-24T07:08:31.524Z,10.90
2017-09-24T07:10:59.806Z,11.00
2017-09-24T07:13:27.315Z,11.00
2017-09-24T07:15:54.806Z,11.10
2017-09-24T07:18:23.073Z,11.20
2017-09-24T07:20:51.344Z,11.30
2017-09-24T07:23:18.861Z,11.30
2017-09-24T07:25:46.347Z,11.40
2017-09-24T07:28:13.942Z,11.40
2017-09-24T07:30:42.195Z,11.60
2017-09-24T07:33:09.730Z,11.60
2017-09-24T07:35:37.232Z,11.70
2017-09-24T07:38:05.491Z,11.90
2017-09-24T07:40:33.755Z,12.00
2017-09-24T07:43:02.025Z,12.10
2017-09-24T07:45:29.499Z,12.10
2017-09-24T07:47:57.004Z,12.20
2017-09-24T07:50:24.493Z,12.20
2017-09-24T07:52:52.003Z,12.30
2017-09-24T07:55:19.504Z,12.40
2017-09-24T07:57:47.012Z,12.50
2017-09-24T08:00:15.264Z,12.70
2017-09-24T08:02:42.766Z,12.60
2017-09-24T08:05:10.265Z,12.80
2017-09-24T08:07:37.786Z,12.80
2017-09-24T08:10:05.275Z,12.90
2017-09-24T08:12:32.786Z,13.00
2017-09-24T08:15:00.296Z,13.10
2017-09-24T08:17:27.801Z,13.10
2017-09-24T08:19:55.304Z,13.10
2017-09-24T08:22:22.783Z,13.20
2017-09-24T08:24:51.059Z,13.40
2017-09-24T08:27:18.540Z,13.40
2017-09-24T08:29:46.824Z,13.60
2017-09-24T08:32:15.069Z,13.60
2017-09-24T08:34:42.585Z,13.60
2017-09-24T08:37:10.079Z,13.70
2017-09-24T08:39:37.575Z,13.80
2017-09-24T08:42:05.061Z,13.80
2017-09-24T08:44:32.561Z,13.90
2017-09-24T08:47:00.046Z,13.90
2017-09-24T08:49:28.310Z,14.00
2017-09-24T08:51:55.809Z,14.00
2017-09-24T08:54:23.322Z,14.10
2017-09-24T08:56:50.820Z,14.20
2017-09-24T08:59:18.329Z,14.20
2017-09-24T09:01:45.824Z,14.30
2017-09-24T09:04:13.329Z,14.40
2017-09-24T09:06:40.822Z,14.40
2017-09-24T09:09:09.078Z,14.60
2017-09-24T09:11:36.579Z,14.50
2017-09-24T09:14:04.083Z,14.60
2017-09-24T09:16:31.583Z,14.70
2017-09-24T09:18:59.843Z,14.70
2017-09-24T09:21:40.002Z,14.80
2017-09-24T09:24:08.250Z,14.90
2017-09-24T09:26:35.758Z,14.80
2017-09-24T09:29:03.236Z,15.00
2017-09-24T09:31:30.739Z,15.10
2017-09-24T09:33:58.240Z,15.10
2017-09-24T09:36:25.746Z,15.10
2017-09-24T09:38:53.242Z,15.10
2017-09-24T09:41:20.782Z,15.20
2017-09-24T09:43:49.051Z,15.40
2017-09-24T09:59:46.302Z,15.80
2017-09-24T10:02:14.550Z,16.00
2017-09-24T10:04:42.047Z,16.00
2017-09-24T10:07:22.374Z,16.20
2017-09-24T10:10:01.533Z,16.20
2017-09-24T10:12:29.810Z,16.40
2017-09-24T10:14:58.058Z,16.50
2017-09-24T10:17:25.554Z,16.50
2017-09-24T10:19:53.059Z,16.60
2017-09-24T10:22:20.558Z,16.60
2017-09-24T10:24:48.810Z,16.40
2017-09-24T10:27:16.305Z,16.40
2017-09-24T10:29:56.417Z,16.20
2017-09-24T10:32:23.911Z,16.20
2017-09-24T10:34:58.583Z,15.90
2017-09-24T10:37:26.609Z,15.90
2017-09-24T10:39:54.890Z,15.60
2017-09-24T10:42:23.174Z,15.50
2017-09-24T10:44:50.667Z,15.50
2017-09-24T10:47:18.176Z,15.50
2017-09-24T10:49:46.433Z,15.40
2017-09-24T10:52:13.923Z,15.40
2017-09-24T10:54:41.427Z,15.40
2017-09-24T10:57:08.916Z,15.30
2017-09-24T10:59:50.794Z,15.30
2017-09-24T11:02:24.842Z,15.30
2017-09-24T11:04:52.351Z,15.20
2017-09-24T11:07:19.875Z,15.20
2017-09-24T11:09:47.388Z,15.30
2017-09-24T11:12:15.633Z,15.40
2017-09-24T11:14:43.123Z,15.40
2017-09-24T11:17:10.619Z,15.40
2017-09-24T11:19:38.142Z,15.40
2017-09-24T11:22:05.632Z,15.40
2017-09-24T11:24:33.139Z,15.50
2017-09-24T11:27:01.754Z,15.60
2017-09-24T11:29:30.026Z,15.60
2017-09-24T11:31:58.282Z,15.80
2017-09-24T11:34:25.791Z,15.80
2017-09-24T11:36:53.280Z,16.00
2017-09-24T11:39:20.785Z,16.10
2017-09-24T11:41:49.052Z,16.40
2017-09-24T11:44:16.548Z,16.40
2017-09-24T11:46:44.056Z,16.60
2017-09-24T11:49:12.370Z,16.70
2017-09-24T11:51:39.924Z,16.80
2017-09-24T11:54:09.116Z,17.00
2017-09-24T11:56:37.374Z,17.10
2017-09-24T11:59:04.850Z,17.10
2017-09-24T12:01:33.108Z,17.30
2017-09-24T12:04:00.590Z,17.20
2017-09-24T12:06:28.100Z,17.40
2017-09-24T12:08:55.591Z,17.40
2017-09-24T12:11:23.854Z,17.60
2017-09-24T12:13:51.352Z,17.60
2017-09-24T12:16:18.862Z,17.80
2017-09-24T12:18:47.124Z,18.00
2017-09-24T12:21:14.694Z,18.00
2017-09-24T12:23:42.213Z,18.00
2017-09-24T12:26:09.719Z,17.90
2017-09-24T12:28:37.211Z,17.70
2017-09-24T12:31:05.490Z,17.40
2017-09-24T12:33:32.969Z,17.30
2017-09-24T12:36:00.461Z,17.30
2017-09-24T12:38:27.954Z,17.20
2017-09-24T12:40:56.230Z,17.10
2017-09-24T12:43:24.482Z,17.10
2017-09-24T12:45:51.973Z,17.00
2017-09-24T12:48:20.228Z,17.10
2017-09-24T12:50:48.498Z,17.10
2017-09-24T12:53:17.494Z,17.20
2017-09-24T12:55:44.983Z,17.20
2017-09-24T12:58:12.470Z,17.30
2017-09-24T13:00:39.966Z,17.30
2017-09-24T13:03:07.468Z,17.40
2017-09-24T13:05:34.972Z,17.40
2017-09-24T13:08:02.476Z,17.40
2017-09-24T13:10:29.973Z,17.40
2017-09-24T13:12:57.471Z,17.40
2017-09-24T13:15:25.733Z,17.40
2017-09-24T13:17:53.244Z,17.30
2017-09-24T13:20:20.739Z,17.30
2017-09-24T13:22:49.743Z,17.30
2017-09-24T13:25:17.234Z,17.30
2017-09-24T13:27:44.741Z,17.30
2017-09-24T13:30:12.225Z,17.40
2017-09-24T13:32:40.494Z,17.60
2017-09-24T13:35:08.762Z,17.70
2017-09-24T13:37:36.268Z,17.70
2017-09-24T13:40:03.759Z,17.80
2017-09-24T13:42:31.257Z,17.90
2017-09-24T13:44:59.521Z,18.00
2017-09-24T13:47:27.794Z,17.90
2017-09-24T13:49:55.287Z,17.90
2017-09-24T13:52:22.816Z,17.80
2017-09-24T13:54:50.299Z,17.70
2017-09-24T13:57:18.552Z,17.50
2017-09-24T13:59:46.063Z,17.40
2017-09-24T14:02:13.570Z,17.40
2017-09-24T14:04:41.839Z,17.30
2017-09-24T14:07:09.331Z,17.30
2017-09-24T14:09:36.823Z,17.30
2017-09-24T14:12:04.321Z,17.40
2017-09-24T14:14:31.831Z,17.40
2017-09-24T14:16:59.322Z,17.40
2017-09-24T14:19:26.840Z,17.50
2017-09-24T14:21:54.329Z,17.50
2017-09-24T14:24:21.838Z,17.50
2017-09-24T14:26:49.318Z,17.60
2017-09-24T14:29:16.829Z,17.60
2017-09-24T14:31:45.103Z,17.80
2017-09-24T14:34:12.606Z,17.80
2017-09-24T14:36:40.099Z,17.90
2017-09-24T14:39:07.619Z,18.00
2017-09-24T14:41:35.125Z,18.00
2017-09-24T14:44:02.637Z,18.00
2017-09-24T14:46:30.120Z,17.90
2017-09-24T14:48:57.606Z,17.90
2017-09-24T14:51:25.886Z,17.70
2017-09-24T14:53:53.374Z,17.70
2017-09-24T14:56:20.875Z,17.60
2017-09-24T14:58:48.360Z,17.50
2017-09-24T15:01:15.868Z,17.40
2017-09-24T15:03:43.383Z,17.30
2017-09-24T15:06:11.642Z,17.10
2017-09-24T15:08:39.129Z,17.10
2017-09-24T15:11:06.644Z,17.00
2017-09-24T15:13:34.121Z,16.90
2017-09-24T15:16:01.642Z,16.80
2017-09-24T15:18:29.132Z,16.70
2017-09-24T15:20:58.135Z,16.50
2017-09-24T15:23:25.635Z,16.50
2017-09-24T15:25:53.134Z,16.50
2017-09-24T15:28:20.644Z,16.50
2017-09-24T15:30:48.186Z,16.50
2017-09-24T15:33:15.674Z,16.50
2017-09-24T15:35:43.194Z,16.50
2017-09-24T15:38:11.453Z,16.40
2017-09-24T15:40:38.942Z,16.40
2017-09-24T15:43:07.219Z,16.30
2017-09-24T15:45:34.713Z,16.30
2017-09-24T15:48:02.228Z,16.30
2017-09-24T15:50:29.711Z,16.30
2017-09-24T15:52:57.244Z,16.30
2017-09-24T15:55:25.494Z,16.10
2017-09-24T15:57:53.780Z,16.10
2017-09-24T16:00:21.271Z,16.00
2017-09-24T16:02:48.789Z,16.00
2017-09-24T16:05:16.295Z,15.90
2017-09-24T16:07:43.813Z,15.80
2017-09-24T16:10:11.291Z,15.80
2017-09-24T16:12:39.557Z,15.60
2017-09-24T16:15:07.057Z,15.60
2017-09-24T16:17:34.561Z,15.60
2017-09-24T16:20:02.107Z,15.50
2017-09-24T16:22:29.615Z,15.40
2017-09-24T16:24:57.093Z,15.40
2017-09-24T16:27:24.604Z,15.40
2017-09-24T16:29:52.884Z,15.20
2017-09-24T16:32:21.150Z,15.20
2017-09-24T16:34:50.209Z,15.20
2017-09-24T16:37:17.709Z,15.10
2017-09-24T16:39:45.983Z,15.00
2017-09-24T16:42:14.297Z,15.00
2017-09-24T16:44:41.818Z,15.00
2017-09-24T16:47:09.299Z,15.00
2017-09-24T16:49:36.799Z,15.00
2017-09-24T16:52:04.290Z,14.90
2017-09-24T16:54:31.795Z,14.80
2017-09-24T16:56:59.321Z,14.70
2017-09-24T16:59:26.823Z,14.70
2017-09-24T17:01:54.316Z,14.60
2017-09-24T17:04:21.875Z,14.60
2017-09-24T17:06:49.355Z,14.50
2017-09-24T17:09:17.621Z,14.40
2017-09-24T17:11:45.886Z,14.40
2017-09-24T17:14:14.917Z,14.30
2017-09-24T17:16:42.403Z,14.30
2017-09-24T17:19:10.144Z,14.20
2017-09-24T17:21:37.649Z,14.10
2017-09-24T17:24:05.916Z,14.10
2017-09-24T17:26:33.424Z,14.10
2017-09-24T17:29:01.678Z,14.00
2017-09-24T17:31:29.951Z,13.90
2017-09-24T17:33:57.448Z,13.90
2017-09-24T17:36:24.953Z,13.90
2017-09-24T17:38:52.450Z,13.90
2017-09-24T17:41:19.961Z,13.80
2017-09-24T17:43:47.478Z,13.60
2017-09-24T17:46:14.980Z,13.60
2017-09-24T17:48:42.476Z,13.60
2017-09-24T17:51:10.748Z,13.50
2017-09-24T17:53:39.016Z,13.50
2017-09-24T17:56:07.300Z,13.40
2017-09-24T17:58:35.556Z,13.40
2017-09-24T18:01:03.071Z,13.40
2017-09-24T18:03:30.568Z,13.40
2017-09-24T18:05:58.085Z,13.30
2017-09-24T18:08:25.582Z,13.30
2017-09-24T18:10:53.071Z,13.30
2017-09-24T18:13:21.332Z,13.20
2017-09-24T18:15:48.832Z,13.20
2017-09-24T18:18:16.324Z,13.20
2017-09-24T18:20:43.826Z,13.10
2017-09-24T18:23:12.080Z,12.90
2017-09-24T18:25:39.631Z,12.90
2017-09-24T18:28:07.123Z,12.90
2017-09-24T18:30:34.621Z,12.90
2017-09-24T18:33:02.135Z,13.00
2017-09-24T18:35:30.407Z,12.90
2017-09-24T18:37:58.690Z,12.90
2017-09-24T18:40:26.944Z,12.80
2017-09-24T18:42:54.452Z,12.80
2017-09-24T18:45:21.950Z,12.80
2017-09-24T18:47:49.456Z,12.80
2017-09-24T18:50:16.951Z,12.80
2017-09-24T18:52:44.450Z,12.70
2017-09-24T18:55:12.704Z,12.50
2017-09-24T18:57:40.210Z,12.40
2017-09-24T19:00:07.712Z,12.50
2017-09-24T19:02:35.977Z,12.50
2017-09-24T19:05:03.510Z,12.50
2017-09-24T19:07:31.023Z,12.30
2017-09-24T19:09:59.287Z,12.40
2017-09-24T19:12:27.551Z,12.40
2017-09-24T19:14:55.043Z,12.40
2017-09-24T19:17:23.313Z,12.40
2017-09-24T19:19:51.584Z,12.40
2017-09-24T19:22:19.087Z,12.40
2017-09-24T19:24:46.575Z,12.40
2017-09-24T19:27:14.088Z,12.30
2017-09-24T19:29:41.582Z,12.30
2017-09-24T19:32:09.091Z,12.30
2017-09-24T19:34:37.344Z,12.20
2017-09-24T19:37:04.850Z,12.20
2017-09-24T19:39:32.344Z,12.20
2017-09-24T19:41:59.854Z,12.30
2017-09-24T19:44:27.368Z,12.20
2017-09-24T19:46:54.863Z,12.20
2017-09-24T19:49:23.126Z,12.10
2017-09-24T19:51:50.607Z,12.10
2017-09-24T19:54:18.106Z,12.10
2017-09-24T19:56:45.596Z,12.10
2017-09-24T19:59:13.090Z,12.00
2017-09-24T20:01:40.582Z,11.90
2017-09-24T20:04:08.101Z,11.90
2017-09-24T20:06:35.602Z,11.80
2017-09-24T20:09:03.094Z,11.80
2017-09-24T20:11:31.350Z,11.80
2017-09-24T20:13:58.869Z,11.80
2017-09-24T20:16:26.364Z,11.80
2017-09-24T20:18:53.871Z,11.70
2017-09-24T20:21:21.359Z,11.80
2017-09-24T20:23:48.894Z,11.70
2017-09-24T20:26:16.407Z,11.70
2017-09-24T20:28:43.909Z,11.70
2017-09-24T20:31:11.410Z,11.70
2017-09-24T20:33:38.894Z,11.70
2017-09-24T20:36:07.165Z,11.70
2017-09-24T20:38:34.656Z,11.70
2017-09-24T20:41:02.159Z,11.60
2017-09-24T20:43:29.651Z,11.50
2017-09-24T20:45:57.915Z,11.60
2017-09-24T20:48:25.402Z,11.60
2017-09-24T20:50:52.906Z,11.60
2017-09-24T20:53:20.401Z,11.60
2017-09-24T20:55:48.685Z,11.50
2017-09-24T20:58:16.180Z,11.40
2017-09-24T21:00:43.693Z,11.50
2017-09-24T21:03:11.953Z,11.30
2017-09-24T21:05:39.480Z,11.30
2017-09-24T21:08:07.176Z,11.40
2017-09-24T21:10:35.471Z,11.30
2017-09-24T21:13:02.978Z,11.30
2017-09-24T21:15:30.489Z,11.40
2017-09-24T21:17:58.744Z,11.40
2017-09-24T21:20:26.234Z,11.40
2017-09-24T21:22:53.734Z,11.40
2017-09-24T21:25:21.986Z,11.30
2017-09-24T21:27:49.477Z,11.30
2017-09-24T21:30:16.970Z,11.30
2017-09-24T21:32:45.230Z,11.20
2017-09-24T21:35:12.838Z,11.20
2017-09-24T21:37:40.334Z,11.20
2017-09-24T21:40:07.822Z,11.20
2017-09-24T21:42:36.086Z,11.20
2017-09-24T21:45:03.588Z,11.20
2017-09-24T21:47:31.090Z,11.10
2017-09-24T21:49:58.583Z,11.10
2017-09-24T21:52:26.969Z,11.10
2017-09-24T21:54:54.455Z,11.10
2017-09-24T21:57:21.963Z,11.20
2017-09-24T21:59:50.226Z,11.10
2017-09-24T22:02:17.723Z,11.10
2017-09-24T22:04:45.225Z,11.10
2017-09-24T22:07:12.742Z,11.10
2017-09-24T22:09:40.243Z,11.00
2017-09-24T22:12:07.760Z,11.00
2017-09-24T22:14:35.251Z,11.10
2017-09-24T22:17:02.772Z,11.00
2017-09-24T22:19:30.274Z,11.00
2017-09-24T22:21:57.773Z,11.00
2017-09-24T22:24:26.044Z,10.90
2017-09-24T22:26:54.314Z,10.80
2017-09-24T22:29:22.579Z,10.90
2017-09-24T22:31:50.073Z,10.80
2017-09-24T22:34:17.573Z,10.90
2017-09-24T22:36:45.058Z,10.90
2017-09-24T22:39:12.566Z,10.90
2017-09-24T22:41:40.080Z,10.90
2017-09-24T22:44:08.387Z,10.90
2017-09-24T22:46:35.883Z,10.90
2017-09-24T22:49:03.379Z,10.90
2017-09-24T22:51:31.979Z,10.80
2017-09-24T22:53:59.499Z,10.80
2017-09-24T22:56:26.989Z,10.80
2017-09-24T22:58:56.301Z,10.80
2017-09-24T23:01:23.800Z,10.80
2017-09-24T23:03:51.302Z,10.70
2017-09-24T23:06:19.558Z,10.60
2017-09-24T23:08:47.071Z,10.60
2017-09-24T23:11:14.580Z,10.70
2017-09-24T23:13:42.869Z,10.70
2017-09-24T23:16:11.142Z,10.70
2017-09-24T23:18:39.420Z,10.60
2017-09-24T23:21:07.170Z,10.60
2017-09-24T23:23:34.707Z,10.70
2017-09-24T23:26:02.194Z,10.60
2017-09-24T23:28:30.544Z,10.60
2017-09-24T23:30:58.057Z,10.60
2017-09-24T23:33:25.578Z,10.50
2017-09-24T23:35:53.242Z,10.50
2017-09-24T23:38:20.744Z,10.50
2017-09-24T23:40:48.245Z,10.50
2017-09-24T23:43:16.952Z,10.40
2017-09-24T23:45:45.231Z,10.40
2017-09-24T23:48:12.730Z,10.30
2017-09-24T23:50:40.225Z,10.40
2017-09-24T23:53:07.726Z,10.40
2017-09-24T23:55:35.224Z,10.30
2017-09-24T23:58:02.731Z,10.30
